Main page
METAR-TAF:

METAR-TAF

Airports :

Kota Airport

Kota, India

latitude: 25-09-36N, longitude: 075-50-44E, elevation: 273 m

Current weather observation

The report was made 38 minutes ago, at 06:00 UTC
Wind 3 kt from the Southwest
Temperature 28°C
Humidity 84%
Pressure 1001 hPa
Visibility: 4000 m
Broken clouds at a height of 3000 ft
Overcast at a height of 9000 ft
mist

METAR: VIKO 300600Z 23003KT 4000 BR BKN030 OVC090 28/25 Q1001

Time: 12:08 (06:38 UTC)

Forecast

The report was made 7 hours and 38 minutes ago, at 23:00 UTC
Forecast valid from 30 at 00 UTC to 30 at 09 UTC
Wind 8 kt from the West
Visibility: 2000 m
Broken clouds at a height of 2000 ft
Broken clouds at a height of 8000 ft
haze, drizzle

TAF: VIKO 292300Z 3000/3009 26008KT 2000 HZ DZ BKN020 BKN080

Weather observations and forecasts of more than 4000 airports (METAR and TAF reports).

The available stations are represented by yellow and red dots on the map.

Hover mouse over dot to see the name of the station.

Then click to see weather observations and forecasts.

To change the map : click on the green buttons with a black cross to zoom in, on the green button with a dash to zoom out, or on the green arrows for adjacent maps.


METAR-TAF: